sensor_id;sensor_type;location;lat;lon;timestamp;pressure;altitude;pressure_sealevel;temperature;humidity
60820;BME280;46641;48.904;9.126;2023-01-28T00:01:24;99205.81;;;7.30;64.99
60820;BME280;46641;48.904;9.126;2023-01-28T00:06:14;99205.00;;;7.29;65.21
60820;BME280;46641;48.904;9.126;2023-01-28T00:11:06;99205.00;;;7.29;64.99
60820;BME280;46641;48.904;9.126;2023-01-28T00:15:58;99212.69;;;7.31;65.14
60820;BME280;46641;48.904;9.126;2023-01-28T00:21:15;99210.22;;;7.29;65.20
60820;BME280;46641;48.904;9.126;2023-01-28T00:26:07;99217.06;;;7.30;65.79
60820;BME280;46641;48.904;9.126;2023-01-28T00:31:08;99209.88;;;7.34;65.40
60820;BME280;46641;48.904;9.126;2023-01-28T00:35:59;99209.03;;;7.33;65.93
60820;BME280;46641;48.904;9.126;2023-01-28T00:40:50;99199.34;;;7.35;64.83
60820;BME280;46641;48.904;9.126;2023-01-28T00:45:40;99201.22;;;7.33;65.75
60820;BME280;46641;48.904;9.126;2023-01-28T00:50:30;99199.34;;;7.35;65.67
60820;BME280;46641;48.904;9.126;2023-01-28T00:55:20;99201.97;;;7.35;65.37
60820;BME280;46641;48.904;9.126;2023-01-28T01:00:11;99195.94;;;7.35;65.43
60820;BME280;46641;48.904;9.126;2023-01-28T01:05:01;99194.25;;;7.34;65.86
60820;BME280;46641;48.904;9.126;2023-01-28T01:09:52;99189.88;;;7.34;65.73
60820;BME280;46641;48.904;9.126;2023-01-28T01:14:42;99195.94;;;7.35;65.56
60820;BME280;46641;48.904;9.126;2023-01-28T01:19:32;99197.69;;;7.34;65.07
60820;BME280;46641;48.904;9.126;2023-01-28T01:24:23;99201.22;;;7.33;65.22
60820;BME280;46641;48.904;9.126;2023-01-28T01:29:13;99203.09;;;7.31;65.43
60820;BME280;46641;48.904;9.126;2023-01-28T01:34:03;99209.03;;;7.33;65.51
60820;BME280;46641;48.904;9.126;2023-01-28T01:38:54;99216.84;;;7.33;65.36
60820;BME280;46641;48.904;9.126;2023-01-28T01:43:49;99218.72;;;7.31;65.27
60820;BME280;46641;48.904;9.126;2023-01-28T01:48:40;99212.69;;;7.31;65.33
60820;BME280;46641;48.904;9.126;2023-01-28T01:53:31;99215.41;;;7.29;65.66
60820;BME280;46641;48.904;9.126;2023-01-28T01:58:25;99214.47;;;7.30;65.16
60820;BME280;46641;48.904;9.126;2023-01-28T02:03:25;99216.25;;;7.30;65.08
60820;BME280;46641;48.904;9.126;2023-01-28T02:08:17;99210.09;;;7.31;65.81
60820;BME280;46641;48.904;9.126;2023-01-28T02:13:10;99214.25;;;7.33;65.93
60820;BME280;46641;48.904;9.126;2023-01-28T02:18:01;99206.44;;;7.33;65.73
60820;BME280;46641;48.904;9.126;2023-01-28T02:28:33;99220.28;;;7.34;65.19
60820;BME280;46641;48.904;9.126;2023-01-28T02:33:59;99219.59;;;7.32;65.05
60820;BME280;46641;48.904;9.126;2023-01-28T02:38:54;99220.41;;;7.32;65.31
60820;BME280;46641;48.904;9.126;2023-01-28T02:43:47;99226.44;;;7.33;65.18
60820;BME280;46641;48.904;9.126;2023-01-28T02:48:37;99221.31;;;7.31;65.37
60820;BME280;46641;48.904;9.126;2023-01-28T02:53:37;99225.63;;;7.32;65.05
60820;BME280;46641;48.904;9.126;2023-01-28T02:58:52;99233.44;;;7.32;65.57
60820;BME280;46641;48.904;9.126;2023-01-28T03:04:06;99235.19;;;7.32;65.60
60820;BME280;46641;48.904;9.126;2023-01-28T03:09:02;99228.31;;;7.31;65.73
60820;BME280;46641;48.904;9.126;2023-01-28T03:14:11;99231.53;;;7.34;64.99
60820;BME280;46641;48.904;9.126;2023-01-28T03:19:22;99234.34;;;7.31;65.28
60820;BME280;46641;48.904;9.126;2023-01-28T03:24:43;99235.28;;;7.30;64.79
60820;BME280;46641;48.904;9.126;2023-01-28T03:29:57;99231.88;;;7.30;65.63
60820;BME280;46641;48.904;9.126;2023-01-28T03:35:09;99228.31;;;7.31;65.84
60820;BME280;46641;48.904;9.126;2023-01-28T03:40:21;99239.34;;;7.34;65.04
60820;BME280;46641;48.904;9.126;2023-01-28T03:45:11;99243.84;;;7.32;65.31
60820;BME280;46641;48.904;9.126;2023-01-28T03:50:03;99246.44;;;7.32;65.61
60820;BME280;46641;48.904;9.126;2023-01-28T03:54:56;99244.66;;;7.33;65.34
60820;BME280;46641;48.904;9.126;2023-01-28T03:59:47;99240.41;;;7.32;65.88
60820;BME280;46641;48.904;9.126;2023-01-28T04:04:41;99242.88;;;7.33;66.05
60820;BME280;46641;48.904;9.126;2023-01-28T04:09:32;99237.59;;;7.35;65.50
60820;BME280;46641;48.904;9.126;2023-01-28T04:14:22;99250.63;;;7.35;65.57
60820;BME280;46641;48.904;9.126;2023-01-28T04:19:12;99251.44;;;7.35;65.53
60820;BME280;46641;48.904;9.126;2023-01-28T04:24:03;99254.97;;;7.34;65.35
60820;BME280;46641;48.904;9.126;2023-01-28T04:28:53;99255.69;;;7.36;65.84
60820;BME280;46641;48.904;9.126;2023-01-28T04:33:44;99268.72;;;7.36;66.16
60820;BME280;46641;48.904;9.126;2023-01-28T04:38:34;99267.66;;;7.39;65.27
60820;BME280;46641;48.904;9.126;2023-01-28T04:43:24;99275.50;;;7.39;65.32
60820;BME280;46641;48.904;9.126;2023-01-28T04:48:15;99283.38;;;7.37;65.95
60820;BME280;46641;48.904;9.126;2023-01-28T04:53:06;99277.25;;;7.38;65.00
60820;BME280;46641;48.904;9.126;2023-01-28T04:57:56;99278.31;;;7.36;65.79
60820;BME280;46641;48.904;9.126;2023-01-28T05:02:47;99277.47;;;7.35;65.78
60820;BME280;46641;48.904;9.126;2023-01-28T05:07:37;99286.84;;;7.38;65.72
60820;BME280;46641;48.904;9.126;2023-01-28T05:12:27;99289.53;;;7.36;65.45
60820;BME280;46641;48.904;9.126;2023-01-28T05:17:19;99287.88;;;7.35;65.47
60820;BME280;46641;48.904;9.126;2023-01-28T05:22:09;99285.28;;;7.35;65.59
60820;BME280;46641;48.904;9.126;2023-01-28T05:26:59;99286.22;;;7.34;66.02
60820;BME280;46641;48.904;9.126;2023-01-28T05:31:50;99295.50;;;7.38;65.82
60820;BME280;46641;48.904;9.126;2023-01-28T05:36:40;99290.16;;;7.40;65.81
60820;BME280;46641;48.904;9.126;2023-01-28T05:41:30;99286.94;;;7.36;66.13
60820;BME280;46641;48.904;9.126;2023-01-28T05:46:20;99297.16;;;7.39;65.90
60820;BME280;46641;48.904;9.126;2023-01-28T05:51:11;99293.72;;;7.39;65.84
60820;BME280;46641;48.904;9.126;2023-01-28T05:56:02;99294.53;;;7.39;65.95
60820;BME280;46641;48.904;9.126;2023-01-28T06:00:53;99301.75;;;7.36;65.92
60820;BME280;46641;48.904;9.126;2023-01-28T06:05:45;99295.59;;;7.37;66.24
60820;BME280;46641;48.904;9.126;2023-01-28T06:10:35;99304.13;;;7.39;65.88
60820;BME280;46641;48.904;9.126;2023-01-28T06:15:25;99316.19;;;7.40;66.08
60820;BME280;46641;48.904;9.126;2023-01-28T06:20:16;99329.22;;;7.40;66.12
60820;BME280;46641;48.904;9.126;2023-01-28T06:25:06;99331.72;;;7.41;65.96
60820;BME280;46641;48.904;9.126;2023-01-28T06:29:56;99327.44;;;7.40;66.15
60820;BME280;46641;48.904;9.126;2023-01-28T06:34:47;99337.84;;;7.40;66.33
60820;BME280;46641;48.904;9.126;2023-01-28T06:39:37;99343.81;;;7.42;65.96
60820;BME280;46641;48.904;9.126;2023-01-28T06:44:27;99343.91;;;7.41;66.52
60820;BME280;46641;48.904;9.126;2023-01-28T06:49:17;99353.28;;;7.43;66.02
60820;BME280;46641;48.904;9.126;2023-01-28T06:54:08;99357.56;;;7.44;66.21
60820;BME280;46641;48.904;9.126;2023-01-28T06:58:58;99357.56;;;7.44;66.57
60820;BME280;46641;48.904;9.126;2023-01-28T07:03:49;99362.66;;;7.46;66.23
60820;BME280;46641;48.904;9.126;2023-01-28T07:08:39;99369.63;;;7.45;66.75
60820;BME280;46641;48.904;9.126;2023-01-28T07:13:30;99375.59;;;7.47;65.84
60820;BME280;46641;48.904;9.126;2023-01-28T07:18:20;99377.34;;;7.47;66.36
60820;BME280;46641;48.904;9.126;2023-01-28T07:23:11;99378.06;;;7.49;66.16
60820;BME280;46641;48.904;9.126;2023-01-28T07:28:01;99379.84;;;7.48;66.51
60820;BME280;46641;48.904;9.126;2023-01-28T07:32:56;99394.53;;;7.49;66.01
60820;BME280;46641;48.904;9.126;2023-01-28T07:37:55;99394.53;;;7.49;65.79
60820;BME280;46641;48.904;9.126;2023-01-28T07:42:45;99387.66;;;7.48;66.62
60820;BME280;46641;48.904;9.126;2023-01-28T07:47:36;99398.06;;;7.48;66.30
60820;BME280;46641;48.904;9.126;2023-01-28T07:52:26;99391.91;;;7.49;66.58
60820;BME280;46641;48.904;9.126;2023-01-28T07:57:16;99404.94;;;7.49;66.63
60820;BME280;46641;48.904;9.126;2023-01-28T08:02:16;99411.81;;;7.50;66.55
60820;BME280;46641;48.904;9.126;2023-01-28T08:07:06;99410.88;;;7.52;66.53
60820;BME280;46641;48.904;9.126;2023-01-28T08:11:57;99417.97;;;7.49;66.60
60820;BME280;46641;48.904;9.126;2023-01-28T08:16:47;99416.09;;;7.52;66.16
60820;BME280;46641;48.904;9.126;2023-01-28T08:21:37;99412.66;;;7.51;66.34
60820;BME280;46641;48.904;9.126;2023-01-28T08:26:28;99422.03;;;7.54;66.23
60820;BME280;46641;48.904;9.126;2023-01-28T08:31:18;99424.53;;;7.55;66.24
60820;BME280;46641;48.904;9.126;2023-01-28T08:36:08;99421.09;;;7.55;66.02
60820;BME280;46641;48.904;9.126;2023-01-28T08:40:59;99427.97;;;7.56;66.17
60820;BME280;46641;48.904;9.126;2023-01-28T08:45:49;99426.41;;;7.53;65.63
60820;BME280;46641;48.904;9.126;2023-01-28T08:50:40;99420.56;;;7.49;64.00
60820;BME280;46641;48.904;9.126;2023-01-28T08:55:32;99428.91;;;7.29;63.50
60820;BME280;46641;48.904;9.126;2023-01-28T09:00:22;99427.47;;;7.12;63.32
60820;BME280;46641;48.904;9.126;2023-01-28T09:05:13;99433.69;;;7.10;64.10
60820;BME280;46641;48.904;9.126;2023-01-28T09:10:05;99431.16;;;6.95;63.80
60820;BME280;46641;48.904;9.126;2023-01-28T09:14:56;99430.34;;;7.08;63.54
60820;BME280;46641;48.904;9.126;2023-01-28T09:19:46;99444.84;;;7.12;63.09
60820;BME280;46641;48.904;9.126;2023-01-28T09:24:37;99452.13;;;7.19;63.22
60820;BME280;46641;48.904;9.126;2023-01-28T09:29:27;99456.09;;;7.25;63.44
60820;BME280;46641;48.904;9.126;2023-01-28T09:34:17;99463.59;;;7.30;63.39
60820;BME280;46641;48.904;9.126;2023-01-28T09:39:07;99460.78;;;7.33;63.48
60820;BME280;46641;48.904;9.126;2023-01-28T09:44:12;99469.97;;;7.38;62.83
60820;BME280;46641;48.904;9.126;2023-01-28T09:49:19;99476.22;;;7.36;63.64
60820;BME280;46641;48.904;9.126;2023-01-28T09:54:34;99475.16;;;7.38;63.54
60820;BME280;46641;48.904;9.126;2023-01-28T09:59:27;99471.63;;;7.39;63.87
60820;BME280;46641;48.904;9.126;2023-01-28T10:04:43;99480.19;;;7.41;63.97
60820;BME280;46641;48.904;9.126;2023-01-28T10:09:42;99479.97;;;7.44;64.35
60820;BME280;46641;48.904;9.126;2023-01-28T10:19:47;99472.03;;;7.46;64.03
60820;BME280;46641;48.904;9.126;2023-01-28T10:24:44;99466.81;;;7.46;64.65
60820;BME280;46641;48.904;9.126;2023-01-28T10:29:37;99465.78;;;7.48;64.32
60820;BME280;46641;48.904;9.126;2023-01-28T10:34:28;99462.25;;;7.49;64.79
60820;BME280;46641;48.904;9.126;2023-01-28T10:39:21;99455.16;;;7.52;64.55
60820;BME280;46641;48.904;9.126;2023-01-28T10:44:15;99452.25;;;7.56;64.56
60820;BME280;46641;48.904;9.126;2023-01-28T10:49:14;99461.41;;;7.62;63.74
60820;BME280;46641;48.904;9.126;2023-01-28T10:54:23;99459.84;;;7.59;64.01
60820;BME280;46641;48.904;9.126;2023-01-28T10:59:21;99465.69;;;7.63;64.86
60820;BME280;46641;48.904;9.126;2023-01-28T11:04:27;99464.53;;;7.67;63.77
60820;BME280;46641;48.904;9.126;2023-01-28T11:09:46;99467.13;;;7.67;64.02
60820;BME280;46641;48.904;9.126;2023-01-28T11:14:37;99466.09;;;7.69;64.61
60820;BME280;46641;48.904;9.126;2023-01-28T11:19:34;99467.78;;;7.70;64.05
60820;BME280;46641;48.904;9.126;2023-01-28T11:24:28;99470.25;;;7.72;64.58
60820;BME280;46641;48.904;9.126;2023-01-28T11:29:33;99472.03;;;7.71;63.90
60820;BME280;46641;48.904;9.126;2023-01-28T11:34:31;99467.44;;;7.75;64.20
60820;BME280;46641;48.904;9.126;2023-01-28T11:39:24;99475.78;;;7.80;64.23
60820;BME280;46641;48.904;9.126;2023-01-28T11:44:23;99468.69;;;7.82;63.50
60820;BME280;46641;48.904;9.126;2023-01-28T11:49:39;99480.06;;;7.81;64.11
60820;BME280;46641;48.904;9.126;2023-01-28T11:54:55;99464.50;;;7.80;63.69
60820;BME280;46641;48.904;9.126;2023-01-28T12:05:10;99476.00;;;7.77;63.96
60820;BME280;46641;48.904;9.126;2023-01-28T12:15:05;99480.13;;;7.80;64.15
60820;BME280;46641;48.904;9.126;2023-01-28T12:20:24;99484.09;;;7.85;63.56
60820;BME280;46641;48.904;9.126;2023-01-28T12:35:43;99483.69;;;7.79;64.40
60820;BME280;46641;48.904;9.126;2023-01-28T12:40:52;99484.53;;;7.79;64.49
60820;BME280;46641;48.904;9.126;2023-01-28T12:45:47;99472.22;;;7.81;64.68
60820;BME280;46641;48.904;9.126;2023-01-28T12:50:48;99471.19;;;7.84;65.04
60820;BME280;46641;48.904;9.126;2023-01-28T12:55:44;99461.81;;;7.81;65.19
60820;BME280;46641;48.904;9.126;2023-01-28T13:00:39;99459.94;;;7.83;65.28
60820;BME280;46641;48.904;9.126;2023-01-28T13:05:47;99462.03;;;7.40;63.22
60820;BME280;46641;48.904;9.126;2023-01-28T13:10:42;99460.97;;;7.04;64.71
60820;BME280;46641;48.904;9.126;2023-01-28T13:15:35;99452.13;;;7.19;63.75
60820;BME280;46641;48.904;9.126;2023-01-28T13:25:25;99468.09;;;6.33;63.73
60820;BME280;46641;48.904;9.126;2023-01-28T13:30:30;99472.84;;;6.27;64.71
60820;BME280;46641;48.904;9.126;2023-01-28T13:35:33;99474.81;;;6.65;64.16
60820;BME280;46641;48.904;9.126;2023-01-28T13:40:26;99470.72;;;7.00;63.44
60820;BME280;46641;48.904;9.126;2023-01-28T13:50:32;99473.06;;;7.31;62.86
60820;BME280;46641;48.904;9.126;2023-01-28T13:55:34;99475.06;;;7.40;62.29
60820;BME280;46641;48.904;9.126;2023-01-28T14:00:35;99478.81;;;7.48;62.10
60820;BME280;46641;48.904;9.126;2023-01-28T14:05:44;99482.13;;;7.50;61.63
60820;BME280;46641;48.904;9.126;2023-01-28T14:11:00;99491.72;;;7.50;61.57
60820;BME280;46641;48.904;9.126;2023-01-28T14:16:18;99489.94;;;7.50;62.81
60820;BME280;46641;48.904;9.126;2023-01-28T14:21:21;99497.75;;;7.50;62.75
60820;BME280;46641;48.904;9.126;2023-01-28T14:31:10;99503.50;;;7.56;63.04
60820;BME280;46641;48.904;9.126;2023-01-28T14:36:01;99507.78;;;7.57;62.39
60820;BME280;46641;48.904;9.126;2023-01-28T14:40:53;99515.91;;;7.52;62.58
60820;BME280;46641;48.904;9.126;2023-01-28T14:51:10;99526.31;;;7.52;62.67
60820;BME280;46641;48.904;9.126;2023-01-28T15:01:03;99525.09;;;7.58;62.83
60820;BME280;46641;48.904;9.126;2023-01-28T15:06:16;99532.06;;;7.57;62.56
60820;BME280;46641;48.904;9.126;2023-01-28T15:11:12;99534.88;;;7.54;63.75
60820;BME280;46641;48.904;9.126;2023-01-28T15:16:04;99547.59;;;7.59;63.54
60820;BME280;46641;48.904;9.126;2023-01-28T15:20:57;99555.19;;;7.62;62.93
60820;BME280;46641;48.904;9.126;2023-01-28T15:25:48;99552.59;;;7.62;63.96
60820;BME280;46641;48.904;9.126;2023-01-28T15:30:44;99556.84;;;7.63;63.29
60820;BME280;46641;48.904;9.126;2023-01-28T15:35:35;99555.94;;;7.64;63.77
60820;BME280;46641;48.904;9.126;2023-01-28T15:40:25;99553.97;;;7.67;63.81
60820;BME280;46641;48.904;9.126;2023-01-28T15:45:19;99565.09;;;7.69;64.05
60820;BME280;46641;48.904;9.126;2023-01-28T15:50:18;99572.81;;;7.71;63.67
60820;BME280;46641;48.904;9.126;2023-01-28T15:55:34;99573.75;;;7.70;62.85
60820;BME280;46641;48.904;9.126;2023-01-28T16:00:25;99579.06;;;7.68;63.64
60820;BME280;46641;48.904;9.126;2023-01-28T16:10:22;99585.03;;;7.70;63.09
60820;BME280;46641;48.904;9.126;2023-01-28T16:15:18;99593.66;;;7.71;63.59
60820;BME280;46641;48.904;9.126;2023-01-28T16:20:24;99599.78;;;7.70;63.01
60820;BME280;46641;48.904;9.126;2023-01-28T16:25:30;99590.31;;;7.69;63.22
60820;BME280;46641;48.904;9.126;2023-01-28T16:30:21;99598.88;;;7.71;64.06
60820;BME280;46641;48.904;9.126;2023-01-28T16:35:20;99597.94;;;7.72;63.78
60820;BME280;46641;48.904;9.126;2023-01-28T16:40:12;99585.66;;;7.74;64.35
60820;BME280;46641;48.904;9.126;2023-01-28T16:45:03;99595.88;;;7.77;64.32
60820;BME280;46641;48.904;9.126;2023-01-28T16:49:54;99578.47;;;7.78;64.09
60820;BME280;46641;48.904;9.126;2023-01-28T16:54:44;99587.09;;;7.78;64.63
60820;BME280;46641;48.904;9.126;2023-01-28T16:59:35;99592.31;;;7.78;64.52
60820;BME280;46641;48.904;9.126;2023-01-28T17:04:25;99589.72;;;7.78;64.48
60820;BME280;46641;48.904;9.126;2023-01-28T17:09:15;99593.06;;;7.80;64.46
60820;BME280;46641;48.904;9.126;2023-01-28T17:14:06;99590.44;;;7.80;63.89
60820;BME280;46641;48.904;9.126;2023-01-28T17:18:58;99594.81;;;7.80;64.25
60820;BME280;46641;48.904;9.126;2023-01-28T17:23:48;99597.53;;;7.78;64.56
60820;BME280;46641;48.904;9.126;2023-01-28T17:28:38;99599.19;;;7.79;64.07
60820;BME280;46641;48.904;9.126;2023-01-28T17:33:29;99610.56;;;7.78;64.25
60820;BME280;46641;48.904;9.126;2023-01-28T17:38:19;99615.03;;;7.76;64.31
60820;BME280;46641;48.904;9.126;2023-01-28T17:43:09;99623.59;;;7.78;64.92
60820;BME280;46641;48.904;9.126;2023-01-28T17:48:00;99617.53;;;7.78;64.68
60820;BME280;46641;48.904;9.126;2023-01-28T17:52:54;99620.03;;;7.79;64.13
60820;BME280;46641;48.904;9.126;2023-01-28T17:57:45;99625.44;;;7.76;64.43
60820;BME280;46641;48.904;9.126;2023-01-28T18:02:35;99629.75;;;7.77;64.45
60820;BME280;46641;48.904;9.126;2023-01-28T18:07:25;99624.41;;;7.79;64.40
60820;BME280;46641;48.904;9.126;2023-01-28T18:12:16;99623.38;;;7.81;65.27
60820;BME280;46641;48.904;9.126;2023-01-28T18:17:06;99634.63;;;7.82;64.77
60820;BME280;46641;48.904;9.126;2023-01-28T18:21:57;99647.78;;;7.80;64.85
60820;BME280;46641;48.904;9.126;2023-01-28T18:26:49;99642.78;;;7.77;64.76
60820;BME280;46641;48.904;9.126;2023-01-28T18:31:39;99641.09;;;7.76;64.67
60820;BME280;46641;48.904;9.126;2023-01-28T18:36:29;99647.13;;;7.77;64.32
60820;BME280;46641;48.904;9.126;2023-01-28T18:41:20;99661.94;;;7.76;64.57
60820;BME280;46641;48.904;9.126;2023-01-28T18:46:16;99662.88;;;7.75;64.02
60820;BME280;46641;48.904;9.126;2023-01-28T18:51:08;99670.69;;;7.75;64.76
60820;BME280;46641;48.904;9.126;2023-01-28T18:56:00;99664.66;;;7.75;64.30
60820;BME280;46641;48.904;9.126;2023-01-28T19:00:51;99675.16;;;7.73;64.85
60820;BME280;46641;48.904;9.126;2023-01-28T19:05:41;99672.56;;;7.73;64.21
60820;BME280;46641;48.904;9.126;2023-01-28T19:10:31;99671.84;;;7.71;64.49
60820;BME280;46641;48.904;9.126;2023-01-28T19:15:22;99670.25;;;7.68;64.22
60820;BME280;46641;48.904;9.126;2023-01-28T19:20:12;99666.81;;;7.68;64.41
60820;BME280;46641;48.904;9.126;2023-01-28T19:25:03;99672.94;;;7.67;64.19
60820;BME280;46641;48.904;9.126;2023-01-28T19:29:53;99679.09;;;7.66;64.26
60820;BME280;46641;48.904;9.126;2023-01-28T19:34:43;99683.38;;;7.67;63.97
60820;BME280;46641;48.904;9.126;2023-01-28T19:39:34;99683.38;;;7.67;63.98
60820;BME280;46641;48.904;9.126;2023-01-28T19:44:24;99672.94;;;7.67;64.61
60820;BME280;46641;48.904;9.126;2023-01-28T19:49:15;99676.22;;;7.70;64.48
60820;BME280;46641;48.904;9.126;2023-01-28T19:54:05;99677.31;;;7.66;64.63
60820;BME280;46641;48.904;9.126;2023-01-28T19:58:56;99682.66;;;7.65;63.81
60820;BME280;46641;48.904;9.126;2023-01-28T20:03:51;99684.50;;;7.63;63.92
60820;BME280;46641;48.904;9.126;2023-01-28T20:08:42;99690.66;;;7.62;64.62
60820;BME280;46641;48.904;9.126;2023-01-28T20:13:33;99694.03;;;7.64;64.08
60820;BME280;46641;48.904;9.126;2023-01-28T20:18:25;99689.53;;;7.66;64.84
60820;BME280;46641;48.904;9.126;2023-01-28T20:23:16;99703.31;;;7.68;64.27
60820;BME280;46641;48.904;9.126;2023-01-28T20:28:06;99718.19;;;7.66;64.13
60820;BME280;46641;48.904;9.126;2023-01-28T20:32:56;99725.28;;;7.64;64.41
60820;BME280;46641;48.904;9.126;2023-01-28T20:37:47;99739.22;;;7.63;63.99
60820;BME280;46641;48.904;9.126;2023-01-28T20:42:37;99746.31;;;7.61;64.01
60820;BME280;46641;48.904;9.126;2023-01-28T20:47:27;99752.38;;;7.61;64.08
60820;BME280;46641;48.904;9.126;2023-01-28T20:52:17;99747.03;;;7.63;63.32
60820;BME280;46641;48.904;9.126;2023-01-28T20:57:08;99739.41;;;7.60;63.82
60820;BME280;46641;48.904;9.126;2023-01-28T21:01:58;99747.25;;;7.60;64.07
60820;BME280;46641;48.904;9.126;2023-01-28T21:06:49;99750.91;;;7.57;63.72
60820;BME280;46641;48.904;9.126;2023-01-28T21:11:40;99753.59;;;7.56;63.71
60820;BME280;46641;48.904;9.126;2023-01-28T21:16:30;99753.78;;;7.53;63.56
60820;BME280;46641;48.904;9.126;2023-01-28T21:21:24;99766.06;;;7.50;64.21
60820;BME280;46641;48.904;9.126;2023-01-28T21:26:15;99760.75;;;7.52;64.72
60820;BME280;46641;48.904;9.126;2023-01-28T21:31:12;99750.22;;;7.54;63.47
60820;BME280;46641;48.904;9.126;2023-01-28T21:36:08;99747.63;;;7.54;63.96
60820;BME280;46641;48.904;9.126;2023-01-28T21:41:02;99733.69;;;7.55;64.50
60820;BME280;46641;48.904;9.126;2023-01-28T21:45:54;99735.47;;;7.54;64.77
60820;BME280;46641;48.904;9.126;2023-01-28T21:50:44;99744.09;;;7.55;64.34
60820;BME280;46641;48.904;9.126;2023-01-28T21:55:53;99736.38;;;7.53;65.14
60820;BME280;46641;48.904;9.126;2023-01-28T22:00:44;99745.78;;;7.56;64.62
60820;BME280;46641;48.904;9.126;2023-01-28T22:05:34;99761.41;;;7.56;64.28
60820;BME280;46641;48.904;9.126;2023-01-28T22:10:24;99748.38;;;7.56;64.05
60820;BME280;46641;48.904;9.126;2023-01-28T22:15:15;99751.16;;;7.53;63.93
60820;BME280;46641;48.904;9.126;2023-01-28T22:20:06;99748.56;;;7.53;63.53
60820;BME280;46641;48.904;9.126;2023-01-28T22:24:57;99753.13;;;7.49;63.91
60820;BME280;46641;48.904;9.126;2023-01-28T22:29:48;99743.56;;;7.49;63.93
60820;BME280;46641;48.904;9.126;2023-01-28T22:34:39;99746.16;;;7.49;63.93
60820;BME280;46641;48.904;9.126;2023-01-28T22:39:29;99743.75;;;7.46;63.51
60820;BME280;46641;48.904;9.126;2023-01-28T22:44:19;99742.09;;;7.45;63.76
60820;BME280;46641;48.904;9.126;2023-01-28T22:49:10;99744.75;;;7.44;64.05
60820;BME280;46641;48.904;9.126;2023-01-28T22:54:01;99748.31;;;7.43;64.59
60820;BME280;46641;48.904;9.126;2023-01-28T22:59:00;99744.75;;;7.44;63.65
60820;BME280;46641;48.904;9.126;2023-01-28T23:03:51;99735.09;;;7.46;64.44
60820;BME280;46641;48.904;9.126;2023-01-28T23:08:41;99728.94;;;7.47;64.62
60820;BME280;46641;48.904;9.126;2023-01-28T23:13:32;99751.47;;;7.48;64.63
60820;BME280;46641;48.904;9.126;2023-01-28T23:18:42;99736.69;;;7.48;64.87
60820;BME280;46641;48.904;9.126;2023-01-28T23:23:51;99743.56;;;7.49;64.67
60820;BME280;46641;48.904;9.126;2023-01-28T23:29:00;99731.47;;;7.48;64.19
60820;BME280;46641;48.904;9.126;2023-01-28T23:33:50;99728.75;;;7.50;64.77
60820;BME280;46641;48.904;9.126;2023-01-28T23:38:40;99727.91;;;7.49;64.69
60820;BME280;46641;48.904;9.126;2023-01-28T23:43:30;99720.84;;;7.52;64.94
60820;BME280;46641;48.904;9.126;2023-01-28T23:48:21;99726.78;;;7.54;64.57
60820;BME280;46641;48.904;9.126;2023-01-28T23:53:11;99719.09;;;7.52;64.69
60820;BME280;46641;48.904;9.126;2023-01-28T23:58:03;99728.75;;;7.50;64.99
